PROFILE

 METAR AND TAF INFORMATION
ADDS - METARS form results

(0356 UTC 25 April 2019)
http://aviationweather.gov/metar/data/
 
PATA 250352Z 08007KT 10SM FEW039 02/M03 A3019 RMK AO2 SLP227 T00171033
PATA 242324Z 2500/2524 09007KT P6SM VCSH BKN022 FM250400 04004KT P6SM SCT035 BKN050 BKN100 FM251800 10008KT P6SM FEW050 SCT100 SCT200 

 AIRPORT MAP

 RUNWAY INFORMATION
Runway 07 Runway length 4400 ft Runway width 150 ft
Runway elevation 223 ft Runway displaced threshold 0 ft Runway heading 89
Runway 25 Runway length 4400 ft Runway width 150 ft
Runway elevation 236 ft Runway displaced threshold 0 ft Runway heading 269

 AIRPORT FREQUENCIES

 AIRPORT NEAR NAVIGATION AIDS
Type NDB Name Bear Creek Frequency 212 KHZ
Type VOR-DME Name Tanana Frequency 116600 KHZ